createdAt,value
2018-09-27T00:02:53.556Z,7.77
2018-09-27T00:07:57.945Z,5.03
2018-09-27T00:13:02.572Z,5.23
2018-09-27T00:18:06.307Z,5.23
2018-09-27T00:23:10.074Z,6.07
2018-09-27T00:28:13.704Z,5.43
2018-09-27T00:33:18.103Z,5.30
2018-09-27T00:38:22.393Z,6.27
2018-09-27T00:43:26.065Z,4.67
2018-09-27T00:48:30.007Z,8.20
2018-09-27T00:53:34.013Z,6.37
2018-09-27T00:58:38.354Z,8.10
2018-09-27T01:03:42.420Z,4.83
2018-09-27T01:08:47.336Z,5.70
2018-09-27T01:13:51.129Z,5.70
2018-09-27T01:18:55.496Z,4.53
2018-09-27T01:23:59.527Z,6.50
2018-09-27T01:29:03.413Z,4.63
2018-09-27T01:34:07.098Z,5.30
2018-09-27T01:39:10.839Z,5.90
2018-09-27T01:44:14.578Z,4.97
2018-09-27T01:49:18.460Z,5.17
2018-09-27T01:54:22.601Z,5.87
2018-09-27T01:59:26.482Z,5.53
2018-09-27T02:04:30.500Z,4.83
2018-09-27T02:09:34.214Z,5.73
2018-09-27T02:14:37.960Z,7.57
2018-09-27T02:19:42.460Z,3.53
2018-09-27T02:24:46.789Z,6.87
2018-09-27T02:29:50.610Z,3.67
2018-09-27T02:34:54.429Z,4.00
2018-09-27T02:39:59.037Z,6.67
2018-09-27T02:45:02.877Z,4.77
2018-09-27T02:50:06.950Z,5.30
2018-09-27T02:55:10.695Z,6.20
2018-09-27T03:00:14.972Z,6.20
2018-09-27T03:05:18.816Z,5.83
2018-09-27T03:10:22.513Z,4.63
2018-09-27T03:15:26.599Z,7.37
2018-09-27T03:20:30.753Z,5.43
2018-09-27T03:25:34.776Z,3.13
2018-09-27T03:30:38.763Z,7.70
2018-09-27T03:35:42.464Z,6.80
2018-09-27T03:40:46.415Z,3.37
2018-09-27T03:45:50.485Z,4.63
2018-09-27T03:50:54.658Z,6.93
2018-09-27T03:55:58.538Z,5.33
2018-09-27T04:01:03.398Z,5.87
2018-09-27T04:06:07.243Z,6.47
2018-09-27T04:11:11.199Z,5.70
2018-09-27T04:16:14.898Z,7.63
2018-09-27T04:21:18.975Z,5.07
2018-09-27T04:26:23.053Z,5.43
2018-09-27T04:31:27.103Z,4.03
2018-09-27T04:36:31.035Z,5.67
2018-09-27T04:41:35.199Z,6.43
2018-09-27T04:46:39.087Z,5.23
2018-09-27T04:51:43.477Z,3.90
2018-09-27T04:56:47.315Z,7.40
2018-09-27T05:01:51.652Z,5.57
2018-09-27T05:06:55.773Z,5.90
2018-09-27T05:11:59.525Z,7.13
2018-09-27T05:17:03.467Z,4.80
2018-09-27T05:22:07.281Z,6.27
2018-09-27T05:27:11.393Z,4.90
2018-09-27T05:32:15.754Z,5.13
2018-09-27T05:37:19.696Z,4.63
2018-09-27T05:42:23.569Z,6.30
2018-09-27T05:47:27.719Z,4.70
2018-09-27T05:52:31.321Z,6.33
2018-09-27T05:57:35.820Z,5.13
2018-09-27T06:02:39.778Z,7.40
2018-09-27T06:07:44.577Z,5.97
2018-09-27T06:12:48.869Z,5.77
2018-09-27T06:17:52.607Z,17.83
2018-09-27T06:22:56.637Z,6.90
2018-09-27T06:28:00.343Z,6.67
2018-09-27T06:33:04.004Z,6.83
2018-09-27T06:38:07.835Z,5.47
2018-09-27T06:43:12.076Z,7.47
2018-09-27T06:48:15.735Z,6.93
2018-09-27T06:53:19.531Z,7.77
2018-09-27T06:58:34.133Z,8.70
2018-09-27T07:03:37.863Z,7.17
2018-09-27T07:08:42.488Z,13.13
2018-09-27T07:13:46.633Z,5.93
2018-09-27T07:24:28.071Z,5.60
2018-09-27T07:29:35.954Z,7.37
2018-09-27T07:34:40.245Z,5.87
2018-09-27T07:39:43.975Z,8.67
2018-09-27T07:44:48.454Z,10.80
2018-09-27T07:49:52.292Z,6.53
2018-09-27T07:54:56.014Z,9.90
2018-09-27T07:59:59.622Z,9.67
2018-09-27T08:05:03.323Z,10.00
2018-09-27T08:10:07.189Z,8.90
2018-09-27T08:15:10.949Z,6.47
2018-09-27T08:20:14.977Z,8.83
2018-09-27T08:25:18.878Z,9.23
2018-09-27T08:30:22.911Z,8.00
2018-09-27T08:35:26.636Z,11.67
2018-09-27T08:40:30.653Z,13.37
2018-09-27T08:45:34.707Z,9.77
2018-09-27T08:50:38.344Z,12.90
2018-09-27T08:55:42.020Z,12.73
2018-09-27T09:00:45.828Z,13.13
2018-09-27T09:05:49.708Z,10.03
2018-09-27T09:10:57.221Z,10.37
2018-09-27T09:16:01.222Z,10.07
2018-09-27T09:21:05.939Z,9.73
2018-09-27T09:26:10.091Z,13.23
2018-09-27T09:31:14.770Z,10.90
2018-09-27T09:36:18.768Z,11.00
2018-09-27T09:41:22.676Z,11.50
2018-09-27T09:46:26.273Z,10.50
2018-09-27T09:51:30.704Z,11.73
2018-09-27T09:56:34.679Z,10.20
2018-09-27T10:01:38.760Z,11.13
2018-09-27T10:06:42.930Z,11.87
2018-09-27T10:11:47.117Z,8.70
2018-09-27T10:16:51.092Z,10.13
2018-09-27T10:21:54.931Z,9.10
2018-09-27T10:26:58.595Z,9.87
2018-09-27T10:32:02.972Z,9.13
2018-09-27T10:37:06.788Z,7.47
2018-09-27T10:42:10.637Z,8.03
2018-09-27T10:47:14.882Z,7.97
2018-09-27T10:52:18.531Z,5.60
2018-09-27T10:57:22.974Z,6.83
2018-09-27T11:02:26.812Z,6.37
2018-09-27T11:07:30.837Z,6.27
2018-09-27T11:12:35.125Z,7.53
2018-09-27T11:17:39.586Z,6.53
2018-09-27T11:22:43.532Z,7.53
2018-09-27T11:27:47.534Z,8.43
2018-09-27T11:32:51.599Z,7.57
2018-09-27T11:38:03.371Z,7.77
2018-09-27T11:43:07.872Z,5.77
2018-09-27T11:48:11.680Z,5.80
2018-09-27T11:53:15.694Z,6.87
2018-09-27T11:58:20.218Z,4.40
2018-09-27T12:03:23.969Z,4.93
2018-09-27T12:08:27.939Z,5.07
2018-09-27T12:13:32.009Z,4.53
2018-09-27T12:18:35.902Z,4.73
2018-09-27T12:23:39.870Z,5.53
2018-09-27T12:28:43.738Z,3.50
2018-09-27T12:33:47.379Z,4.13
2018-09-27T12:38:57.187Z,6.00
2018-09-27T12:44:01.105Z,3.57
2018-09-27T12:49:06.291Z,5.47
2018-09-27T12:54:10.329Z,2.87
2018-09-27T12:59:14.332Z,4.77
2018-09-27T13:04:18.492Z,6.70
2018-09-27T13:09:22.523Z,2.43
2018-09-27T13:14:26.740Z,1.70
2018-09-27T13:19:30.981Z,4.00
2018-09-27T13:24:34.920Z,3.23
2018-09-27T13:29:38.567Z,2.97
2018-09-27T13:34:42.607Z,2.37
2018-09-27T13:39:47.680Z,3.33
2018-09-27T13:44:51.624Z,2.13
2018-09-27T13:49:55.343Z,2.03
2018-09-27T13:54:59.100Z,2.30
2018-09-27T14:00:02.998Z,3.63
2018-09-27T14:05:06.940Z,2.80
2018-09-27T14:10:10.895Z,2.53
2018-09-27T14:15:15.370Z,2.93
2018-09-27T14:20:19.320Z,4.20
2018-09-27T14:25:23.338Z,5.13
2018-09-27T14:30:27.135Z,2.63
2018-09-27T14:35:31.033Z,4.53
2018-09-27T14:40:35.035Z,2.90
2018-09-27T14:45:38.859Z,3.13
2018-09-27T14:50:42.714Z,4.30
2018-09-27T14:55:46.314Z,3.83
2018-09-27T15:00:50.440Z,3.83
2018-09-27T15:05:54.835Z,2.63
2018-09-27T15:10:59.180Z,4.00
2018-09-27T15:16:03.104Z,1.90
2018-09-27T15:21:06.932Z,3.67
2018-09-27T15:26:10.843Z,3.57
2018-09-27T15:31:14.661Z,1.80
2018-09-27T15:36:18.516Z,2.33
2018-09-27T15:41:22.207Z,2.50
2018-09-27T15:46:25.911Z,3.20
2018-09-27T15:51:30.777Z,4.27
2018-09-27T15:56:35.271Z,4.50
2018-09-27T16:01:38.963Z,3.97
2018-09-27T16:06:42.954Z,2.90
2018-09-27T16:11:46.750Z,2.90
2018-09-27T16:16:50.680Z,5.73
2018-09-27T16:21:58.171Z,5.07
2018-09-27T16:27:02.287Z,4.87
2018-09-27T16:32:06.167Z,2.60
2018-09-27T16:37:10.255Z,3.13
2018-09-27T16:42:14.584Z,4.23
2018-09-27T16:47:18.396Z,4.03
2018-09-27T16:52:22.412Z,2.73
2018-09-27T16:57:26.018Z,3.30
2018-09-27T17:02:29.966Z,2.90
2018-09-27T17:07:34.080Z,4.20
2018-09-27T17:12:38.430Z,4.97
2018-09-27T17:17:42.760Z,3.07
2018-09-27T17:22:46.373Z,5.63
2018-09-27T17:27:50.075Z,7.83
2018-09-27T17:32:54.261Z,3.50
2018-09-27T17:37:57.971Z,4.00
2018-09-27T17:43:02.127Z,3.53
2018-09-27T17:48:06.038Z,4.50
2018-09-27T17:53:09.862Z,3.10
2018-09-27T17:58:14.374Z,3.70
2018-09-27T18:03:17.959Z,5.70
2018-09-27T18:08:21.651Z,11.20
2018-09-27T18:13:25.985Z,4.80
2018-09-27T18:18:30.192Z,4.93
2018-09-27T18:23:33.868Z,3.97
2018-09-27T18:28:37.934Z,6.33
2018-09-27T18:33:42.244Z,8.17
2018-09-27T18:38:51.824Z,8.47
2018-09-27T18:43:55.413Z,6.83
2018-09-27T18:49:07.091Z,6.20
2018-09-27T18:54:11.079Z,7.17
2018-09-27T18:59:14.923Z,5.43
2018-09-27T19:04:19.313Z,4.97
2018-09-27T19:09:23.535Z,7.23
2018-09-27T19:14:27.455Z,5.27
2018-09-27T19:19:32.026Z,7.30
2018-09-27T19:24:36.291Z,6.17
2018-09-27T19:29:40.113Z,4.43
2018-09-27T19:34:43.986Z,8.07
2018-09-27T19:39:47.855Z,4.67
2018-09-27T19:44:52.405Z,10.13
2018-09-27T19:49:58.306Z,4.67
2018-09-27T19:55:02.124Z,7.77
2018-09-27T20:00:06.061Z,6.87
2018-09-27T20:05:10.215Z,7.63
2018-09-27T20:10:14.580Z,6.43
2018-09-27T20:15:18.510Z,6.93
2018-09-27T20:20:22.181Z,5.00
2018-09-27T20:25:26.710Z,5.43
2018-09-27T20:30:32.876Z,5.07
2018-09-27T20:35:36.800Z,6.97
2018-09-27T20:40:40.412Z,5.77
2018-09-27T20:45:44.171Z,7.10
2018-09-27T20:50:47.971Z,7.23
2018-09-27T20:55:52.045Z,7.27
2018-09-27T21:00:56.103Z,9.23
2018-09-27T21:05:59.780Z,8.13
2018-09-27T21:11:03.871Z,12.57
2018-09-27T21:16:07.624Z,8.17
2018-09-27T21:21:11.304Z,7.53
2018-09-27T21:26:15.732Z,8.70
2018-09-27T21:31:20.072Z,6.70
2018-09-27T21:36:23.632Z,8.13
2018-09-27T21:41:27.725Z,5.67
2018-09-27T21:46:31.511Z,8.30
2018-09-27T21:51:35.335Z,10.77
2018-09-27T21:56:39.343Z,7.93
2018-09-27T22:01:50.203Z,9.53
2018-09-27T22:06:53.947Z,9.40
2018-09-27T22:11:57.867Z,7.70
2018-09-27T22:17:02.384Z,11.33
2018-09-27T22:22:06.818Z,8.63
2018-09-27T22:27:10.867Z,10.77
2018-09-27T22:32:14.607Z,8.90
2018-09-27T22:37:18.676Z,10.03
2018-09-27T22:42:22.680Z,7.13
2018-09-27T22:47:26.412Z,8.23
2018-09-27T22:52:30.107Z,9.47
2018-09-27T22:57:34.196Z,9.83
2018-09-27T23:02:38.324Z,12.37
2018-09-27T23:07:42.835Z,10.47
2018-09-27T23:12:46.526Z,9.77
2018-09-27T23:17:50.446Z,8.97
2018-09-27T23:22:54.102Z,11.00
2018-09-27T23:27:57.823Z,9.53
2018-09-27T23:33:02.259Z,11.97
2018-09-27T23:38:06.273Z,11.63
2018-09-27T23:43:10.515Z,11.53
2018-09-27T23:48:23.354Z,11.53
2018-09-27T23:53:27.122Z,14.37
2018-09-27T23:58:36.187Z,9.90
